createdAt,value
2024-03-02T00:01:56.425Z,8.50
2024-03-02T00:04:24.516Z,9.77
2024-03-02T00:06:55.799Z,7.70
2024-03-02T00:09:24.089Z,6.43
2024-03-02T00:11:52.793Z,10.97
2024-03-02T00:14:20.941Z,7.43
2024-03-02T00:16:50.354Z,8.00
2024-03-02T00:19:18.811Z,7.33
2024-03-02T00:21:46.932Z,8.17
2024-03-02T00:24:23.695Z,8.90
2024-03-02T00:26:51.842Z,7.40
2024-03-02T00:29:21.926Z,8.97
2024-03-02T00:31:51.364Z,9.60
2024-03-02T00:34:19.936Z,10.07
2024-03-02T00:36:48.107Z,8.67
2024-03-02T00:39:19.570Z,8.37
2024-03-02T00:41:48.727Z,8.43
2024-03-02T00:44:18.333Z,8.80
2024-03-02T00:46:46.671Z,9.30
2024-03-02T00:49:23.806Z,10.40
2024-03-02T00:51:53.782Z,10.57
2024-03-02T00:54:25.268Z,11.77
2024-03-02T00:56:56.170Z,7.37
2024-03-02T00:59:24.932Z,10.77
2024-03-02T01:01:55.087Z,9.57
2024-03-02T01:04:24.558Z,9.33
2024-03-02T01:06:53.044Z,9.03
2024-03-02T01:09:21.660Z,9.77
2024-03-02T01:11:49.717Z,8.83
2024-03-02T01:14:18.231Z,10.67
2024-03-02T01:16:49.996Z,10.13
2024-03-02T01:19:18.144Z,9.27
2024-03-02T01:21:47.646Z,9.33
2024-03-02T01:24:16.038Z,8.20
2024-03-02T01:26:44.257Z,10.07
2024-03-02T01:29:12.289Z,11.10
2024-03-02T01:31:43.457Z,10.53
2024-03-02T01:34:11.690Z,8.67
2024-03-02T01:36:39.849Z,8.70
2024-03-02T01:39:10.297Z,12.30
2024-03-02T01:41:38.341Z,10.67
2024-03-02T01:44:06.872Z,10.97
2024-03-02T01:46:35.988Z,9.33
2024-03-02T01:49:06.001Z,8.13
2024-03-02T01:51:34.452Z,11.17
2024-03-02T01:54:02.727Z,10.70
2024-03-02T01:56:32.196Z,11.30
2024-03-02T01:59:00.418Z,10.13
2024-03-02T02:01:29.139Z,10.03
2024-03-02T02:03:57.380Z,9.77
2024-03-02T02:06:25.458Z,10.73
2024-03-02T02:08:53.557Z,12.30
2024-03-02T02:11:21.688Z,11.03
2024-03-02T02:13:51.127Z,11.87
2024-03-02T02:16:19.137Z,12.43
2024-03-02T02:18:47.408Z,9.80
2024-03-02T02:21:15.599Z,10.13
2024-03-02T02:23:49.387Z,10.13
2024-03-02T02:26:17.432Z,11.37
2024-03-02T02:28:48.076Z,11.93
2024-03-02T02:31:16.266Z,11.50
2024-03-02T02:33:44.863Z,10.93
2024-03-02T02:36:12.917Z,11.30
2024-03-02T02:38:46.784Z,12.87
2024-03-02T02:41:15.042Z,10.33
2024-03-02T02:43:43.171Z,10.37
2024-03-02T02:46:11.236Z,10.17
2024-03-02T02:48:38.353Z,11.60
2024-03-02T02:51:06.442Z,11.50
2024-03-02T02:53:36.556Z,12.33
2024-03-02T02:56:06.779Z,11.67
2024-03-02T02:58:34.964Z,11.77
2024-03-02T03:01:04.005Z,10.40
2024-03-02T03:03:32.182Z,9.60
2024-03-02T03:06:00.265Z,11.90
2024-03-02T03:08:28.567Z,11.93
2024-03-02T03:10:56.656Z,13.87
2024-03-02T03:13:26.049Z,13.07
2024-03-02T03:15:54.184Z,10.33
2024-03-02T03:18:22.475Z,10.73
2024-03-02T03:20:51.119Z,12.87
2024-03-02T03:23:19.255Z,12.83
2024-03-02T03:25:47.414Z,11.77
2024-03-02T03:28:15.551Z,13.90
2024-03-02T03:30:45.236Z,10.13
2024-03-02T03:33:13.282Z,11.70
2024-03-02T03:35:41.359Z,14.20
2024-03-02T03:38:09.474Z,11.70
2024-03-02T03:40:38.123Z,13.60
2024-03-02T03:43:06.447Z,12.23
2024-03-02T03:45:34.719Z,13.23
2024-03-02T03:48:04.283Z,11.87
2024-03-02T03:50:32.425Z,13.30
2024-03-02T03:53:00.502Z,12.00
2024-03-02T03:55:28.604Z,11.50
2024-03-02T03:57:56.822Z,13.10
2024-03-02T04:00:24.968Z,12.37
2024-03-02T04:02:53.067Z,12.90
2024-03-02T04:05:22.568Z,12.40
2024-03-02T04:07:50.708Z,11.97
2024-03-02T04:10:19.094Z,14.57
2024-03-02T04:12:47.233Z,13.30
2024-03-02T04:15:15.400Z,11.97
2024-03-02T04:17:43.558Z,15.10
2024-03-02T04:20:13.832Z,12.77
2024-03-02T04:22:43.339Z,10.83
2024-03-02T04:25:11.544Z,11.07
2024-03-02T04:27:39.718Z,13.13
2024-03-02T04:30:09.279Z,12.57
2024-03-02T04:32:38.005Z,12.57
2024-03-02T04:35:09.019Z,11.13
2024-03-02T04:37:37.284Z,14.10
2024-03-02T04:40:10.313Z,12.10
2024-03-02T04:42:38.791Z,11.87
2024-03-02T04:45:08.295Z,13.60
2024-03-02T04:47:36.672Z,11.90
2024-03-02T04:50:05.315Z,13.83
2024-03-02T04:52:33.428Z,13.50
2024-03-02T04:55:30.682Z,11.20
2024-03-02T04:58:00.503Z,13.43
2024-03-02T05:00:28.707Z,13.43
2024-03-02T05:02:56.741Z,10.50
2024-03-02T05:05:24.897Z,12.63
2024-03-02T05:07:53.592Z,13.07
2024-03-02T05:10:21.759Z,13.97
2024-03-02T05:12:58.370Z,14.50
2024-03-02T05:15:27.301Z,13.67
2024-03-02T05:17:55.504Z,13.57
2024-03-02T05:20:23.614Z,13.63
2024-03-02T05:22:51.720Z,12.93
2024-03-02T05:25:19.804Z,11.37
2024-03-02T05:27:48.540Z,14.50
2024-03-02T05:30:17.371Z,12.40
2024-03-02T05:32:46.924Z,13.47
2024-03-02T05:35:15.225Z,11.90
2024-03-02T05:37:43.270Z,15.33
2024-03-02T05:40:14.135Z,12.80
2024-03-02T05:42:42.573Z,13.40
2024-03-02T05:45:11.268Z,14.73
2024-03-02T05:47:39.481Z,13.57
2024-03-02T05:50:10.124Z,11.57
2024-03-02T05:52:38.446Z,13.27
2024-03-02T05:55:07.332Z,13.17
2024-03-02T05:57:48.571Z,13.83
2024-03-02T06:00:18.659Z,14.07
2024-03-02T06:02:47.483Z,12.80
2024-03-02T06:05:17.928Z,12.33
2024-03-02T06:07:46.447Z,14.87
2024-03-02T06:10:15.541Z,13.60
2024-03-02T06:12:43.938Z,10.60
2024-03-02T06:15:12.287Z,11.73
2024-03-02T06:17:40.465Z,12.87
2024-03-02T06:20:10.639Z,10.50
2024-03-02T06:22:40.153Z,13.07
2024-03-02T06:25:09.401Z,12.40
2024-03-02T06:27:36.673Z,11.23
2024-03-02T06:30:05.983Z,11.30
2024-03-02T06:32:34.236Z,14.33
2024-03-02T06:35:02.394Z,14.83
2024-03-02T06:37:30.448Z,13.97
2024-03-02T06:40:00.069Z,13.67
2024-03-02T06:42:34.152Z,13.20
2024-03-02T06:45:07.294Z,11.50
2024-03-02T06:47:35.465Z,14.00
2024-03-02T06:50:04.443Z,13.53
2024-03-02T06:52:32.513Z,12.10
2024-03-02T06:55:02.225Z,12.33
2024-03-02T06:57:30.359Z,11.27
2024-03-02T06:59:59.918Z,13.30
2024-03-02T07:02:28.831Z,13.27
2024-03-02T07:04:56.935Z,13.40
2024-03-02T07:07:25.079Z,14.40
2024-03-02T07:09:53.171Z,15.80
2024-03-02T07:12:22.627Z,12.73
2024-03-02T07:15:12.148Z,12.87
2024-03-02T07:17:40.159Z,11.90
2024-03-02T07:20:09.497Z,13.47
2024-03-02T07:22:40.473Z,14.37
2024-03-02T07:26:54.522Z,11.20
2024-03-02T07:27:59.663Z,12.37
2024-03-02T07:30:27.939Z,12.73
2024-03-02T07:32:56.339Z,12.13
2024-03-02T07:35:27.789Z,14.70
2024-03-02T07:37:56.604Z,12.60
2024-03-02T07:40:24.891Z,11.10
2024-03-02T07:42:53.254Z,11.23
2024-03-02T07:45:22.854Z,12.47
2024-03-02T07:47:51.133Z,11.90
2024-03-02T07:50:19.258Z,14.57
2024-03-02T07:52:47.584Z,16.07
2024-03-02T07:55:15.582Z,9.97
2024-03-02T07:57:44.172Z,11.80
2024-03-02T08:00:15.041Z,10.90
2024-03-02T08:02:44.563Z,12.10
2024-03-02T08:05:12.684Z,10.53
2024-03-02T08:07:40.719Z,11.43
2024-03-02T08:10:10.294Z,10.23
2024-03-02T08:12:38.398Z,12.77
2024-03-02T08:15:08.603Z,11.10
2024-03-02T08:17:38.339Z,11.67
2024-03-02T08:20:10.036Z,12.40
2024-03-02T08:22:38.097Z,12.03
2024-03-02T08:25:07.301Z,12.27
2024-03-02T08:27:35.563Z,11.90
2024-03-02T08:30:07.339Z,11.47
2024-03-02T08:32:35.763Z,8.83
2024-03-02T08:35:04.278Z,10.80
2024-03-02T08:37:33.905Z,11.23
2024-03-02T08:40:02.320Z,10.97
2024-03-02T08:42:30.710Z,9.53
2024-03-02T08:44:59.304Z,13.73
2024-03-02T08:47:27.345Z,11.73
2024-03-02T08:49:57.349Z,11.27
2024-03-02T08:52:26.011Z,11.73
2024-03-02T08:54:55.480Z,10.53
2024-03-02T08:57:23.886Z,10.30
2024-03-02T08:59:51.994Z,10.77
2024-03-02T09:02:20.070Z,10.73
2024-03-02T09:04:48.250Z,9.07
2024-03-02T09:07:16.543Z,6.67
2024-03-02T09:09:44.626Z,7.10
2024-03-02T09:12:14.225Z,7.00
2024-03-02T09:14:43.396Z,7.80
2024-03-02T09:17:12.691Z,6.37
2024-03-02T09:19:41.507Z,11.30
2024-03-02T09:22:10.842Z,8.70
2024-03-02T09:24:38.945Z,6.97
2024-03-02T09:27:07.288Z,6.30
2024-03-02T09:29:37.295Z,6.90
2024-03-02T09:32:06.867Z,6.37
2024-03-02T09:34:35.090Z,5.53
2024-03-02T09:37:05.006Z,5.23
2024-03-02T09:39:33.201Z,6.37
2024-03-02T09:42:01.948Z,4.97
2024-03-02T09:44:30.414Z,7.80
2024-03-02T09:46:59.804Z,5.50
2024-03-02T09:49:28.052Z,7.33
2024-03-02T09:51:56.680Z,4.17
2024-03-02T09:54:25.125Z,4.40
2024-03-02T09:56:53.350Z,5.30
2024-03-02T09:59:21.978Z,7.37
2024-03-02T10:02:00.717Z,5.43
2024-03-02T10:04:30.318Z,5.33
2024-03-02T10:07:20.817Z,7.00
2024-03-02T10:09:51.022Z,11.43
2024-03-02T10:12:20.560Z,5.53
2024-03-02T10:14:49.725Z,6.57
2024-03-02T10:17:20.290Z,5.70
2024-03-02T10:19:48.640Z,4.83
2024-03-02T10:22:16.792Z,4.37
2024-03-02T10:24:47.460Z,6.73
2024-03-02T10:27:18.893Z,4.53
2024-03-02T10:29:49.481Z,5.00
2024-03-02T10:32:19.203Z,3.97
2024-03-02T10:34:49.396Z,3.47
2024-03-02T10:37:18.297Z,5.40
2024-03-02T10:39:49.042Z,7.57
2024-03-02T10:42:18.397Z,3.67
2024-03-02T10:44:47.505Z,6.10
2024-03-02T10:47:21.664Z,3.30
2024-03-02T10:49:51.904Z,2.47
2024-03-02T10:52:20.044Z,2.93
2024-03-02T10:54:48.262Z,1.80
2024-03-02T10:57:18.871Z,2.47
2024-03-02T10:59:54.503Z,7.50
2024-03-02T11:02:26.031Z,4.87
2024-03-02T11:04:57.939Z,0.50
2024-03-02T11:07:29.700Z,1.23
2024-03-02T11:10:09.706Z,1.30
2024-03-02T11:12:45.959Z,1.17
2024-03-02T11:15:20.376Z,1.50
2024-03-02T11:17:51.123Z,1.50
2024-03-02T11:20:21.356Z,1.00
2024-03-02T11:22:50.055Z,1.27
2024-03-02T11:25:28.267Z,1.60
2024-03-02T11:28:06.954Z,2.40
2024-03-02T11:30:54.510Z,1.10
2024-03-02T11:33:30.534Z,1.07
2024-03-02T11:36:02.695Z,1.73
2024-03-02T11:38:34.102Z,1.13
2024-03-02T11:41:03.996Z,0.50
2024-03-02T11:43:34.165Z,0.67
2024-03-02T11:46:05.705Z,0.67
2024-03-02T11:48:37.126Z,0.60
2024-03-02T11:51:06.091Z,7.93
2024-03-02T11:53:36.304Z,24.30
2024-03-02T11:56:06.758Z,11.57
2024-03-02T11:58:37.845Z,8.07
2024-03-02T12:01:06.304Z,4.53
2024-03-02T12:03:37.430Z,23.60
2024-03-02T12:06:06.914Z,8.20
2024-03-02T12:08:35.082Z,3.87
2024-03-02T12:11:05.192Z,1.33
2024-03-02T12:13:34.477Z,3.43
2024-03-02T12:16:02.742Z,8.60
2024-03-02T12:18:30.925Z,5.53
2024-03-02T12:21:00.524Z,1.73
2024-03-02T12:23:28.638Z,0.50
2024-03-02T12:25:57.559Z,1.17
2024-03-02T12:28:25.755Z,1.70
2024-03-02T12:30:53.981Z,6.03
2024-03-02T12:33:22.657Z,1.13
2024-03-02T12:35:51.949Z,3.70
2024-03-02T12:38:21.872Z,2.97
2024-03-02T12:40:51.279Z,1.40
2024-03-02T12:43:19.334Z,0.53
2024-03-02T12:45:48.707Z,1.50
2024-03-02T12:48:17.548Z,4.20
2024-03-02T12:50:45.915Z,2.20
2024-03-02T12:53:18.487Z,1.13
2024-03-02T12:55:48.009Z,4.07
2024-03-02T12:58:22.379Z,0.87
2024-03-02T13:00:50.928Z,0.67
2024-03-02T13:03:23.810Z,2.40
2024-03-02T13:05:52.365Z,1.10
2024-03-02T13:08:20.431Z,0.90
2024-03-02T13:10:50.007Z,1.17
2024-03-02T13:13:18.277Z,0.30
2024-03-02T13:15:46.633Z,1.67
2024-03-02T13:18:14.825Z,0.57
2024-03-02T13:20:43.037Z,0.40
2024-03-02T13:23:11.337Z,1.47
2024-03-02T13:25:39.431Z,1.47
2024-03-02T13:28:09.742Z,2.00
2024-03-02T13:30:37.923Z,1.80
2024-03-02T13:33:07.117Z,0.60
2024-03-02T13:35:35.295Z,0.63
2024-03-02T13:38:03.388Z,0.73
2024-03-02T13:40:36.289Z,0.87
2024-03-02T13:43:05.203Z,0.60
2024-03-02T13:45:34.683Z,3.60
2024-03-02T13:48:04.574Z,1.80
2024-03-02T13:50:33.272Z,2.53
2024-03-02T13:53:01.853Z,1.47
2024-03-02T13:55:29.928Z,0.97
2024-03-02T13:57:58.171Z,2.90
2024-03-02T14:00:26.625Z,1.73
2024-03-02T14:02:56.141Z,1.30
2024-03-02T14:05:24.170Z,0.80
2024-03-02T14:07:52.719Z,0.50
2024-03-02T14:10:23.615Z,8.17
2024-03-02T14:12:52.008Z,4.60
2024-03-02T14:15:21.790Z,0.93
2024-03-02T14:17:50.423Z,3.10
2024-03-02T14:20:23.214Z,0.73
2024-03-02T14:22:51.717Z,0.63
2024-03-02T14:25:20.194Z,1.60
2024-03-02T14:28:07.901Z,4.97
2024-03-02T14:30:38.355Z,0.60
2024-03-02T14:33:07.231Z,0.30
2024-03-02T14:35:36.707Z,0.53
2024-03-02T14:38:05.174Z,3.70
2024-03-02T14:40:33.310Z,1.60
2024-03-02T14:43:01.682Z,0.90
2024-03-02T14:45:29.962Z,1.40
2024-03-02T14:48:00.667Z,1.40
2024-03-02T14:50:29.195Z,0.90
2024-03-02T14:52:59.751Z,0.90
2024-03-02T14:55:28.020Z,3.53
2024-03-02T14:57:56.207Z,0.90
2024-03-02T15:00:24.433Z,0.80
2024-03-02T15:02:52.659Z,0.90
2024-03-02T15:05:20.744Z,1.80
2024-03-02T15:07:48.840Z,0.70
2024-03-02T15:10:18.366Z,1.50
2024-03-02T15:12:46.526Z,2.77
2024-03-02T15:15:14.691Z,2.53
2024-03-02T15:17:43.897Z,2.07
2024-03-02T15:20:12.919Z,4.53
2024-03-02T15:22:41.023Z,1.20
2024-03-02T15:25:10.161Z,1.83
2024-03-02T15:27:40.907Z,1.77
2024-03-02T15:30:10.122Z,2.30
2024-03-02T15:32:39.762Z,2.23
2024-03-02T15:35:09.988Z,2.27
2024-03-02T15:37:38.183Z,2.47
2024-03-02T15:40:09.615Z,1.33
2024-03-02T15:42:39.528Z,1.00
2024-03-02T15:45:09.124Z,0.83
2024-03-02T15:47:37.976Z,2.00
2024-03-02T15:50:07.891Z,3.23
2024-03-02T15:52:35.897Z,1.17
2024-03-02T15:55:06.744Z,2.17
2024-03-02T15:57:35.610Z,3.13
2024-03-02T16:00:06.791Z,2.07
2024-03-02T16:02:39.645Z,2.23
2024-03-02T16:05:08.563Z,2.77
2024-03-02T16:07:36.578Z,1.57
2024-03-02T16:10:07.638Z,2.87
2024-03-02T16:12:40.824Z,4.13
2024-03-02T16:15:12.657Z,2.13
2024-03-02T16:17:40.729Z,1.70
2024-03-02T16:20:11.322Z,0.93
2024-03-02T16:22:39.551Z,2.30
2024-03-02T16:25:09.286Z,3.23
2024-03-02T16:27:37.432Z,2.07
2024-03-02T16:30:07.271Z,1.20
2024-03-02T16:32:36.660Z,3.17
2024-03-02T16:35:06.663Z,1.83
2024-03-02T16:37:34.928Z,3.43
2024-03-02T16:40:03.246Z,5.07
2024-03-02T16:42:31.467Z,1.80
2024-03-02T16:44:59.710Z,1.80
2024-03-02T16:47:28.032Z,3.40
2024-03-02T16:50:00.035Z,3.60
2024-03-02T16:52:29.785Z,3.27
2024-03-02T16:54:59.594Z,1.23
2024-03-02T16:57:30.436Z,3.47
2024-03-02T16:59:58.733Z,3.27
2024-03-02T17:02:27.271Z,4.60
2024-03-02T17:04:56.990Z,9.80
2024-03-02T17:07:26.542Z,7.13
2024-03-02T17:09:57.023Z,11.07
2024-03-02T17:12:25.435Z,10.47
2024-03-02T17:14:53.574Z,8.07
2024-03-02T17:17:21.666Z,6.73
2024-03-02T17:19:49.774Z,3.37
2024-03-02T17:22:19.497Z,7.37
2024-03-02T17:24:47.827Z,15.97
2024-03-02T17:27:16.046Z,10.17
2024-03-02T17:29:44.126Z,4.93
2024-03-02T17:32:12.302Z,10.30
2024-03-02T17:34:40.416Z,11.63
2024-03-02T17:37:08.622Z,14.30
2024-03-02T17:39:38.141Z,11.93
2024-03-02T17:42:06.758Z,13.00
2024-03-02T17:44:34.784Z,16.87
2024-03-02T17:47:03.203Z,12.00
2024-03-02T17:49:31.401Z,8.73
2024-03-02T17:51:59.487Z,3.77
2024-03-02T17:54:27.885Z,2.50
2024-03-02T17:56:57.668Z,4.93
2024-03-02T17:59:25.977Z,10.37
2024-03-02T18:01:54.036Z,5.40
2024-03-02T18:04:23.730Z,11.90
2024-03-02T18:06:52.220Z,9.47
2024-03-02T18:09:20.346Z,6.07
2024-03-02T18:11:48.429Z,8.30
2024-03-02T18:14:17.871Z,5.90
2024-03-02T18:16:45.940Z,5.73
2024-03-02T18:19:14.091Z,5.93
2024-03-02T18:21:42.273Z,6.73
2024-03-02T18:24:10.606Z,6.30
2024-03-02T18:26:38.662Z,7.60
2024-03-02T18:29:09.523Z,8.13
2024-03-02T18:31:38.884Z,9.27
2024-03-02T18:34:07.346Z,9.07
2024-03-02T18:36:35.710Z,8.97
2024-03-02T18:39:04.471Z,8.30
2024-03-02T18:41:32.586Z,11.60
2024-03-02T18:44:00.596Z,10.07
2024-03-02T18:46:28.751Z,9.17
2024-03-02T18:48:58.386Z,12.20
2024-03-02T18:51:26.735Z,12.93
2024-03-02T18:53:54.772Z,12.40
2024-03-02T18:56:22.885Z,11.23
2024-03-02T18:58:51.057Z,14.57
2024-03-02T19:01:19.963Z,12.63
2024-03-02T19:03:48.115Z,14.23
2024-03-02T19:06:18.125Z,14.73
2024-03-02T19:08:46.294Z,16.40
2024-03-02T19:11:15.911Z,19.67
2024-03-02T19:13:44.328Z,19.10
2024-03-02T19:16:13.918Z,15.73
2024-03-02T19:18:43.052Z,15.00
2024-03-02T19:21:11.906Z,16.10
2024-03-02T19:23:45.025Z,20.83
2024-03-02T19:26:19.613Z,21.90
2024-03-02T19:28:49.384Z,19.83
2024-03-02T19:31:17.794Z,19.93
2024-03-02T19:33:46.561Z,19.87
2024-03-02T19:36:14.859Z,18.17
2024-03-02T19:38:44.395Z,17.87
2024-03-02T19:41:12.455Z,20.77
2024-03-02T19:43:40.487Z,21.00
2024-03-02T19:46:08.529Z,25.80
2024-03-02T19:48:36.600Z,22.17
2024-03-02T19:51:05.297Z,19.93
2024-03-02T19:53:33.524Z,27.00
2024-03-02T19:56:03.136Z,20.27
2024-03-02T19:58:32.030Z,16.23
2024-03-02T20:01:00.180Z,18.33
2024-03-02T20:03:29.035Z,17.23
2024-03-02T20:05:57.089Z,17.97
2024-03-02T20:08:26.532Z,20.70
2024-03-02T20:10:54.618Z,19.37
2024-03-02T20:13:24.149Z,17.90
2024-03-02T20:15:52.720Z,16.53
2024-03-02T20:18:20.846Z,22.60
2024-03-02T20:20:49.080Z,18.33
2024-03-02T20:23:17.171Z,18.70
2024-03-02T20:25:45.742Z,18.90
2024-03-02T20:28:14.430Z,18.03
2024-03-02T20:30:43.873Z,19.87
2024-03-02T20:33:12.186Z,19.73
2024-03-02T20:35:40.370Z,14.53
2024-03-02T20:38:08.477Z,13.83
2024-03-02T20:40:36.940Z,20.37
2024-03-02T20:43:09.188Z,18.07
2024-03-02T20:45:37.518Z,21.27
2024-03-02T20:48:10.100Z,18.50
2024-03-02T20:50:38.325Z,18.97
2024-03-02T20:53:08.165Z,21.27
2024-03-02T20:55:37.209Z,16.33
2024-03-02T20:58:05.770Z,17.30
2024-03-02T21:00:34.027Z,17.60
2024-03-02T21:03:02.511Z,16.70
2024-03-02T21:05:32.311Z,19.73
2024-03-02T21:07:59.418Z,28.13
2024-03-02T21:10:27.432Z,46.00
2024-03-02T21:12:56.163Z,58.83
2024-03-02T21:15:24.278Z,39.13
2024-03-02T21:17:52.729Z,23.00
2024-03-02T21:20:20.901Z,17.80
2024-03-02T21:22:52.676Z,21.83
2024-03-02T21:25:21.855Z,22.83
2024-03-02T21:27:50.039Z,24.70
2024-03-02T21:30:19.552Z,21.27
2024-03-02T21:32:49.571Z,21.97
2024-03-02T21:35:17.804Z,18.90
2024-03-02T21:37:45.816Z,20.90
2024-03-02T21:40:17.595Z,17.47
2024-03-02T21:42:45.867Z,17.47
2024-03-02T21:45:14.013Z,17.27
2024-03-02T21:47:42.248Z,17.67
2024-03-02T21:50:12.798Z,18.90
2024-03-02T21:52:40.852Z,21.93
2024-03-02T21:55:10.125Z,22.27
2024-03-02T21:57:40.484Z,18.37
2024-03-02T22:00:10.117Z,18.97
2024-03-02T22:02:41.893Z,18.20
2024-03-02T22:05:10.417Z,17.00
2024-03-02T22:07:38.527Z,20.20
2024-03-02T22:10:09.072Z,21.10
2024-03-02T22:12:37.254Z,16.77
2024-03-02T22:15:09.298Z,18.00
2024-03-02T22:17:39.227Z,17.10
2024-03-02T22:20:11.292Z,16.83
2024-03-02T22:22:41.088Z,16.83
2024-03-02T22:25:10.156Z,19.17
2024-03-02T22:27:41.974Z,16.23
2024-03-02T22:30:13.277Z,18.07
2024-03-02T22:32:41.481Z,19.43
2024-03-02T22:35:10.693Z,21.10
2024-03-02T22:37:39.382Z,19.23
2024-03-02T22:40:13.228Z,17.73
2024-03-02T22:42:41.340Z,19.40
2024-03-02T22:45:11.635Z,24.43
2024-03-02T22:47:39.702Z,17.93
2024-03-02T22:50:09.495Z,19.07
2024-03-02T22:52:37.693Z,18.83
2024-03-02T22:55:07.059Z,19.40
2024-03-02T22:57:36.323Z,19.50
2024-03-02T23:00:16.781Z,17.03
2024-03-02T23:02:46.163Z,20.60
2024-03-02T23:05:14.224Z,19.97
2024-03-02T23:07:42.280Z,18.00
2024-03-02T23:10:11.122Z,20.13
2024-03-02T23:12:39.655Z,19.20
2024-03-02T23:15:09.190Z,17.03
2024-03-02T23:17:37.410Z,18.67
2024-03-02T23:20:09.092Z,21.07
2024-03-02T23:22:37.157Z,22.40
2024-03-02T23:25:07.705Z,19.03
2024-03-02T23:27:35.900Z,19.43
2024-03-02T23:30:04.327Z,22.53
2024-03-02T23:32:32.390Z,23.87
2024-03-02T23:35:01.655Z,20.93
2024-03-02T23:37:31.090Z,26.70
2024-03-02T23:40:31.398Z,24.67
2024-03-02T23:42:59.517Z,21.00
2024-03-02T23:45:27.641Z,18.57
2024-03-02T23:47:55.747Z,20.40
2024-03-02T23:50:24.434Z,21.73
2024-03-02T23:52:53.814Z,21.87
2024-03-02T23:55:24.337Z,22.37
2024-03-02T23:57:53.607Z,23.43
